Carbondale, Iowa
Current Conditions -  °F | °C
As of 3:35 PM on Friday 28 Nov 2014 (Local Time) from KIKV Reporting Station
Clear Clear  
Wind Chill: 36°   Ceiling: Unl
Heat Index: 41°   Visibility: 10mi
Dew Point: 30°   Wind: 7mph
Humidity: 65%   Direction: 130°SE
Pressure: 29.79"   Gusts: NA
Location:  41.6142°N, 93.5543°W
Report Text: KIKV 282135Z AUTO 13006KT 10SM CLR 05/M01 A2979 RMK AO2
Loading
Personal Weather Stations






























Interactive Weather Map New forecast layout! Learn more

10-Day Weather Forecast

Advertisements
Track Severe Weather on mobile